Time;durP1;ratioP1;P1;durP2;ratioP2;P2;SDS_P1;SDS_P2;PMS_P1;PMS_P2;Temp;Humidity;BMP_temperature;BMP_pressure;BME280_temperature;BME280_humidity;BME280_pressure;Samples;Min_cycle;Max_cycle;Signal;HPM_P1;HPM_P2
2023/03/30 00:01:47;;;;;;;7.90;1.73;;;;;;;15.69;72.95;99777.63;8296959;28;20038;-59
2023/03/30 00:05:50;;;;;;;6.28;1.60;;;;;;;15.68;73.05;99781.34;8297015;28;20056;-59
2023/03/30 00:09:53;;;;;;;9.07;1.85;;;;;;;15.80;72.03;99778.16;8296874;28;20052;-59
2023/03/30 00:13:54;;;;;;;7.22;1.85;;;;;;;15.81;71.75;99774.38;8295604;28;20034;-59
2023/03/30 00:17:55;;;;;;;5.43;1.30;;;;;;;15.88;70.74;99780.72;8297025;28;20049;-59
2023/03/30 00:21:56;;;;;;;4.35;1.27;;;;;;;16.03;70.16;99773.34;8296347;28;20044;-59
2023/03/30 00:25:57;;;;;;;6.55;1.33;;;;;;;16.03;69.75;99762.44;8296133;28;20124;-59
2023/03/30 00:29:57;;;;;;;4.97;1.42;;;;;;;15.95;70.47;99785.22;8296333;28;20129;-59
2023/03/30 00:33:58;;;;;;;8.25;1.48;;;;;;;15.86;71.12;99777.38;8296393;28;20040;-60
2023/03/30 00:38:00;;;;;;;6.47;1.60;;;;;;;15.96;70.60;99756.09;8296353;28;20145;-59
2023/03/30 00:42:00;;;;;;;5.68;1.60;;;;;;;15.95;70.83;99751.69;8295811;28;20120;-59
2023/03/30 00:46:01;;;;;;;7.68;1.90;;;;;;;15.99;70.39;99731.16;8295791;28;20045;-59
2023/03/30 00:50:04;;;;;;;5.80;1.45;;;;;;;15.91;70.62;99737.59;8295556;28;20038;-59
2023/03/30 00:54:11;;;;;;;8.25;1.80;;;;;;;15.91;70.54;99723.09;8295472;28;20488;-59
2023/03/30 00:58:15;;;;;;;7.10;1.85;;;;;;;16.11;69.50;99721.44;8294931;28;20033;-59
2023/03/30 01:02:16;;;;;;;3.33;1.10;;;;;;;16.06;70.11;99729.34;8294700;28;20515;-58
2023/03/30 01:06:23;;;;;;;4.25;1.55;;;;;;;16.00;69.94;99713.75;8283177;28;20461;-59
2023/03/30 01:10:24;;;;;;;5.22;1.45;;;;;;;16.16;69.75;99721.69;8262361;28;20485;-56
2023/03/30 01:14:24;;;;;;;12.07;1.90;;;;;;;16.31;69.40;99733.38;8262453;28;20525;-56
2023/03/30 01:18:36;;;;;;;9.38;1.55;;;;;;;16.37;69.34;99730.69;8261589;28;20516;-57
2023/03/30 01:26:59;;;;;;;6.40;1.67;;;;;;;16.57;68.98;99733.63;8412978;27;20476;-58
2023/03/30 01:31:26;;;;;;;8.57;1.58;;;;;;;16.82;68.14;99740.31;8401838;27;20040;-58
2023/03/30 01:36:06;;;;;;;11.27;2.03;;;;;;;16.87;68.04;99735.09;8401820;27;20156;-58
2023/03/30 01:40:31;;;;;;;10.20;2.08;;;;;;;16.89;68.16;99724.81;8397006;27;20040;-58
2023/03/30 01:44:58;;;;;;;11.20;2.33;;;;;;;17.00;68.24;99737.91;8401601;27;20111;-58
2023/03/30 01:53:37;;;;;;;5.53;1.80;;;;;;;16.75;69.77;99732.09;8342057;28;20969;-58
2023/03/30 01:58:11;;;;;;;9.40;1.90;;;;;;;16.83;69.86;99731.06;8308045;28;20050;-59
2023/03/30 02:02:16;;;;;;;6.65;1.92;;;;;;;16.96;69.17;99717.53;8286568;28;20054;-59
2023/03/30 02:06:24;;;;;;;6.95;1.80;;;;;;;16.93;69.18;99710.56;8286711;28;20559;-54
2023/03/30 02:10:31;;;;;;;6.55;1.58;;;;;;;16.90;69.86;99734.72;8285910;28;20034;-55
2023/03/30 02:14:34;;;;;;;8.80;2.00;;;;;;;16.81;70.21;99730.44;8286805;28;20042;-54
2023/03/30 02:18:37;;;;;;;8.70;1.70;;;;;;;16.74;70.54;99707.72;8286202;28;20042;-54
2023/03/30 02:22:38;;;;;;;7.95;1.60;;;;;;;16.67;71.38;99706.81;8304269;28;20358;-55
2023/03/30 02:26:38;;;;;;;9.40;1.70;;;;;;;16.83;70.38;99662.81;8314954;28;20103;-60
2023/03/30 02:30:42;;;;;;;8.05;1.52;;;;;;;17.04;69.23;99610.84;8285799;28;20046;-61
2023/03/30 02:34:57;;;;;;;9.55;1.80;;;;;;;17.06;68.69;99611.47;8284961;28;20037;-60
2023/03/30 02:39:09;;;;;;;8.95;1.90;;;;;;;16.95;69.12;99625.72;8289215;28;20054;-60
2023/03/30 02:43:26;;;;;;;11.00;2.00;;;;;;;16.98;68.73;99623.44;8285027;28;20040;-60
2023/03/30 02:47:47;;;;;;;7.72;1.75;;;;;;;16.94;68.91;99637.69;8285667;28;20382;-54
2023/03/30 02:51:54;;;;;;;6.28;1.55;;;;;;;16.54;70.78;99635.78;8328385;28;20450;-54
2023/03/30 02:56:21;;;;;;;7.63;1.75;;;;;;;16.50;70.85;99615.41;8348171;28;20516;-53
2023/03/30 03:04:49;;;;;;;8.55;2.05;;;;;;;16.34;71.28;99615.66;8356253;27;20476;-54
2023/03/30 03:08:58;;;;;;;8.02;1.60;;;;;;;16.08;72.57;99607.28;8352084;28;20072;-52
2023/03/30 03:13:01;;;;;;;9.60;1.70;;;;;;;15.98;73.23;99606.81;8350612;28;20037;-52
2023/03/30 03:17:03;;;;;;;9.32;1.92;;;;;;;15.89;73.33;99602.53;8352241;28;20080;-53
2023/03/30 03:21:09;;;;;;;5.88;1.70;;;;;;;15.70;74.44;99609.47;8349518;28;20041;-53
2023/03/30 03:25:10;;;;;;;5.63;1.65;;;;;;;15.50;74.75;99612.00;8351395;28;20042;-53
2023/03/30 03:29:31;;;;;;;6.85;1.90;;;;;;;15.20;75.92;99602.25;8351019;28;20037;-53
2023/03/30 03:33:32;;;;;;;8.23;2.33;;;;;;;15.35;75.69;99611.22;8350867;28;20039;-52
2023/03/30 03:37:39;;;;;;;8.15;1.88;;;;;;;15.39;75.39;99609.81;8351037;28;20033;-53
2023/03/30 03:41:40;;;;;;;9.77;2.10;;;;;;;15.51;75.23;99615.59;8350169;28;20049;-53
2023/03/30 03:45:40;;;;;;;7.72;2.03;;;;;;;15.43;75.34;99608.38;8351154;28;20060;-53
2023/03/30 03:49:41;;;;;;;6.68;1.92;;;;;;;15.23;76.32;99601.00;8348799;28;20041;-53
2023/03/30 03:53:42;;;;;;;8.10;1.95;;;;;;;15.28;76.19;99593.94;8350378;28;20041;-52
2023/03/30 03:57:46;;;;;;;8.97;1.77;;;;;;;15.39;75.49;99590.75;8350608;28;20033;-54
2023/03/30 04:01:46;;;;;;;10.90;2.75;;;;;;;15.41;75.87;99594.09;8348734;28;20288;-54
2023/03/30 04:05:46;;;;;;;12.00;1.95;;;;;;;15.36;76.20;99591.09;8346931;28;20099;-53
2023/03/30 04:09:47;;;;;;;7.50;1.63;;;;;;;15.43;75.86;99581.13;8344502;28;20048;-54
2023/03/30 04:14:07;;;;;;;8.10;2.38;;;;;;;15.47;75.60;99576.97;8337969;28;20044;-59
2023/03/30 04:18:32;;;;;;;10.10;2.30;;;;;;;15.47;75.51;99587.06;8313354;28;20416;-59
2023/03/30 04:22:45;;;;;;;5.60;2.00;;;;;;;15.54;75.62;99577.91;8317823;28;20037;-59
2023/03/30 04:27:03;;;;;;;7.30;1.92;;;;;;;15.63;75.08;99593.09;8344992;28;20405;-54
2023/03/30 04:31:11;;;;;;;9.68;1.85;;;;;;;15.61;74.91;99589.69;8319746;28;20043;-54
2023/03/30 04:35:32;;;;;;;10.27;1.95;;;;;;;15.69;75.06;99592.31;8332036;28;20499;-54
2023/03/30 04:39:44;;;;;;;11.57;2.50;;;;;;;15.69;74.70;99605.94;8324760;28;20041;-54
2023/03/30 04:44:08;;;;;;;12.00;2.30;;;;;;;15.77;74.79;99600.31;8307021;28;20045;-54
2023/03/30 04:48:28;;;;;;;13.07;3.45;;;;;;;15.85;74.11;99591.16;8317696;28;20053;-55
2023/03/30 04:52:40;;;;;;;19.58;3.10;;;;;;;15.86;74.64;99586.56;8324986;28;20384;-54
2023/03/30 04:57:00;;;;;;;7.72;2.95;;;;;;;15.88;74.37;99585.31;8319373;28;20045;-54
2023/03/30 05:01:21;;;;;;;16.67;3.38;;;;;;;16.03;74.06;99585.22;8357225;28;20052;-54
2023/03/30 05:05:41;;;;;;;24.80;4.05;;;;;;;15.96;74.97;99596.09;8357913;28;20453;-54
2023/03/30 05:09:51;;;;;;;24.58;4.15;;;;;;;15.94;75.13;99594.59;8356988;28;20487;-55
2023/03/30 05:14:12;;;;;;;20.55;4.30;;;;;;;15.94;75.41;99616.41;8354495;28;20041;-54
2023/03/30 05:18:31;;;;;;;23.35;3.40;;;;;;;15.93;75.94;99612.84;8326684;28;20087;-54
2023/03/30 05:22:48;;;;;;;13.90;2.92;;;;;;;15.96;75.10;99608.88;8337200;28;20072;-55
2023/03/30 05:27:08;;;;;;;8.88;2.70;;;;;;;16.05;74.69;99610.41;8354918;28;20044;-54
2023/03/30 05:31:24;;;;;;;7.18;2.65;;;;;;;16.19;73.35;99609.50;8316035;28;20037;-55
2023/03/30 05:35:39;;;;;;;12.07;2.35;;;;;;;16.40;72.41;99633.97;8321155;28;20048;-54
2023/03/30 05:39:49;;;;;;;7.03;2.03;;;;;;;16.56;72.03;99639.16;8318823;28;20060;-54
2023/03/30 05:43:57;;;;;;;5.45;1.83;;;;;;;16.46;73.03;99638.66;8316857;28;20045;-53
2023/03/30 05:48:17;;;;;;;5.68;1.85;;;;;;;16.50;72.82;99640.78;8315128;28;20037;-54
2023/03/30 05:52:35;;;;;;;6.05;2.10;;;;;;;16.39;73.35;99637.75;8320042;28;20041;-54
2023/03/30 05:56:44;;;;;;;5.72;2.30;;;;;;;16.35;73.77;99631.00;8320021;28;20120;-53
2023/03/30 06:00:56;;;;;;;6.10;1.77;;;;;;;16.38;73.86;99641.53;8309475;28;20041;-54
2023/03/30 06:05:07;;;;;;;7.20;1.95;;;;;;;16.40;74.02;99650.31;8302906;28;20149;-53
2023/03/30 06:09:07;;;;;;;6.60;1.73;;;;;;;16.32;74.16;99631.41;8289958;28;20033;-54
2023/03/30 06:13:10;;;;;;;6.95;2.28;;;;;;;16.41;73.70;99632.94;8297394;28;20034;-53
2023/03/30 06:17:19;;;;;;;7.78;2.22;;;;;;;16.49;73.69;99632.78;8295832;28;20037;-54
2023/03/30 06:21:20;;;;;;;7.80;1.70;;;;;;;16.56;72.97;99642.72;8307374;28;20096;-53
2023/03/30 06:25:32;;;;;;;8.25;1.58;;;;;;;16.51;73.50;99647.94;8323007;28;20450;-54
2023/03/30 06:29:33;;;;;;;2.90;1.40;;;;;;;16.42;74.34;99637.34;8322252;28;20045;-54
2023/03/30 06:33:34;;;;;;;4.78;1.88;;;;;;;16.31;75.19;99640.63;8322413;28;20029;-53
2023/03/30 06:37:41;;;;;;;6.72;1.70;;;;;;;16.38;75.17;99652.44;8311899;28;20046;-54
2023/03/30 06:41:44;;;;;;;6.75;1.83;;;;;;;16.41;75.67;99652.03;8313389;28;20630;-54
2023/03/30 06:46:03;;;;;;;6.10;1.90;;;;;;;16.47;75.73;99643.09;8322227;28;20128;-54
2023/03/30 06:50:04;;;;;;;5.95;1.40;;;;;;;16.60;75.04;99656.81;8321886;28;20049;-53
2023/03/30 06:54:24;;;;;;;6.45;2.10;;;;;;;16.69;74.30;99663.81;8334174;28;20129;-53
2023/03/30 06:58:31;;;;;;;5.05;1.70;;;;;;;16.87;72.68;99664.94;8321886;28;20038;-54
2023/03/30 07:02:32;;;;;;;5.93;1.73;;;;;;;16.87;73.63;99672.31;8320511;28;20033;-54
2023/03/30 07:06:46;;;;;;;;;;;;;;;16.99;72.02;99679.72;8322334;28;20048;-56
2023/03/30 07:10:47;;;;;;;4.10;1.10;;;;;;;17.00;71.49;99669.66;8321440;28;19923;-54
2023/03/30 07:14:48;;;;;;;3.42;1.50;;;;;;;17.11;70.74;99660.88;8338419;28;20532;-54
2023/03/30 07:18:51;;;;;;;5.55;1.25;;;;;;;17.17;70.68;99673.75;8354311;28;20036;-54
2023/03/30 07:22:51;;;;;;;7.22;1.58;;;;;;;17.00;72.65;99670.50;8317712;28;20129;-52
2023/03/30 07:26:52;;;;;;;4.30;1.08;;;;;;;16.88;73.22;99674.84;8294685;28;20551;-53
2023/03/30 07:31:04;;;;;;;4.53;1.30;;;;;;;16.86;73.47;99673.34;8319620;28;20040;-53
2023/03/30 07:35:07;;;;;;;6.38;1.90;;;;;;;16.71;74.14;99676.19;8311809;28;20047;-54
2023/03/30 07:39:10;;;;;;;6.75;1.60;;;;;;;16.79;73.69;99680.66;8320801;28;20041;-54
2023/03/30 07:43:13;;;;;;;;;;;;;;;16.79;74.78;99688.84;8308028;28;20096;-54
2023/03/30 07:47:14;;;;;;;11.88;1.80;;;;;;;17.00;74.50;99688.75;8311623;28;19921;-54
2023/03/30 07:51:15;;;;;;;4.55;1.50;;;;;;;17.07;74.37;99692.38;8301239;28;20030;-54
2023/03/30 07:55:31;;;;;;;3.22;1.65;;;;;;;17.05;74.33;99702.66;8327072;28;20096;-54
2023/03/30 07:59:39;;;;;;;4.82;1.58;;;;;;;16.94;74.92;99697.75;8319978;28;20529;-54
2023/03/30 08:03:50;;;;;;;4.13;1.40;;;;;;;17.11;73.91;99696.41;8317392;28;20034;-59
2023/03/30 08:07:51;;;;;;;6.40;1.45;;;;;;;17.09;74.26;99706.66;8301502;28;20073;-57
2023/03/30 08:11:59;;;;;;;7.25;1.52;;;;;;;16.93;73.86;99707.81;8293978;28;20467;-59
2023/03/30 08:16:00;;;;;;;4.88;1.33;;;;;;;17.12;74.02;99703.53;8293626;28;20041;-59
2023/03/30 08:20:01;;;;;;;11.20;1.52;;;;;;;17.13;73.44;99707.94;8300051;28;20042;-59
2023/03/30 08:24:01;;;;;;;3.92;1.05;;;;;;;17.17;73.58;99704.59;8299006;28;20145;-58
2023/03/30 08:28:04;;;;;;;6.15;1.35;;;;;;;17.40;74.16;99699.69;8313728;28;20664;-59
2023/03/30 08:32:05;;;;;;;3.70;1.60;;;;;;;17.96;71.63;99704.94;8310101;28;20056;-59
2023/03/30 08:36:06;;;;;;;5.40;1.13;;;;;;;17.80;71.27;99702.56;8305617;28;20045;-59
2023/03/30 08:40:09;;;;;;;7.55;1.20;;;;;;;17.85;70.39;99703.66;8294507;28;20056;-59
2023/03/30 08:44:26;;;;;;;8.67;1.50;;;;;;;17.90;71.06;99703.03;8293478;28;20029;-59
2023/03/30 08:48:32;;;;;;;8.98;1.55;;;;;;;17.62;72.51;99719.53;8263591;28;20389;-59
2023/03/30 08:52:34;;;;;;;8.30;1.55;;;;;;;17.14;75.00;99723.31;8303577;28;20040;-59
2023/03/30 08:56:41;;;;;;;6.82;1.30;;;;;;;16.93;75.36;99726.13;8296254;28;20045;-59
2023/03/30 09:00:53;;;;;;;4.82;1.50;;;;;;;16.78;75.57;99730.84;8323440;28;20109;-59
2023/03/30 09:05:21;;;;;;;8.35;1.63;;;;;;;16.90;73.51;99729.25;8302014;28;20121;-59
2023/03/30 09:09:26;;;;;;;6.18;1.67;;;;;;;16.83;73.35;99747.44;8303354;28;20514;-54
2023/03/30 09:13:33;;;;;;;5.53;1.45;;;;;;;16.88;73.85;99753.16;8323614;28;20029;-54
2023/03/30 09:17:40;;;;;;;3.85;1.08;;;;;;;16.77;74.53;99753.75;8316791;28;20072;-54
2023/03/30 09:21:42;;;;;;;7.82;1.63;;;;;;;16.76;75.43;99772.00;8324126;28;20041;-54
2023/03/30 09:30:17;;;;;;;1.70;0.60;;;;;;;15.08;81.69;99896.94;8404483;27;20461;-53
2023/03/30 09:34:26;;;;;;;8.88;1.80;;;;;;;12.86;90.22;99891.34;8404696;27;20055;-52
2023/03/30 09:38:29;;;;;;;5.47;0.93;;;;;;;12.26;99.85;99892.69;8403863;28;20748;-52
2023/03/30 09:42:38;;;;;;;9.15;1.10;;;;;;;12.18;100.00;99896.22;8362264;28;20041;-53
2023/03/30 09:46:39;;;;;;;6.63;1.10;;;;;;;12.36;100.00;99915.06;8356869;28;20044;-53
2023/03/30 09:50:43;;;;;;;10.15;1.42;;;;;;;12.51;100.00;99913.38;8361210;28;20041;-51
2023/03/30 09:54:43;;;;;;;6.77;1.23;;;;;;;12.82;100.00;99904.44;8382966;28;20033;-53
2023/03/30 09:58:44;;;;;;;6.40;1.10;;;;;;;13.04;100.00;99909.19;8382606;27;20037;-53
2023/03/30 10:02:54;;;;;;;7.53;1.60;;;;;;;12.92;100.00;99901.53;8447580;27;20059;-53
2023/03/30 10:06:55;;;;;;;2.53;1.00;;;;;;;13.08;100.00;99866.25;8449957;27;20429;-50
2023/03/30 10:10:57;;;;;;;4.20;2.08;;;;;;;13.24;97.17;99820.09;8442273;27;20099;-53
2023/03/30 10:15:01;;;;;;;3.75;1.38;;;;;;;13.45;95.92;99847.53;8385103;27;20138;-60
2023/03/30 10:19:08;;;;;;;1.73;0.80;;;;;;;13.44;93.22;99860.25;8380877;28;20094;-60
2023/03/30 10:23:17;;;;;;;2.67;0.50;;;;;;;13.63;91.75;99880.69;8379536;28;20413;-60
2023/03/30 10:27:18;;;;;;;1.05;0.20;;;;;;;14.04;88.21;99874.06;8368151;28;20060;-59
2023/03/30 10:31:19;;;;;;;0.65;0.30;;;;;;;15.06;84.12;99872.63;8414479;27;20097;-60
2023/03/30 10:35:25;;;;;;;1.23;0.50;;;;;;;15.74;81.97;99865.06;8448313;27;20040;-58
2023/03/30 10:39:32;;;;;;;0.82;0.35;;;;;;;16.10;80.01;99872.47;8436627;27;20060;-58
2023/03/30 10:43:34;;;;;;;1.27;0.55;;;;;;;16.99;77.89;99880.97;8425862;28;20048;-58
2023/03/30 10:48:03;;;;;;;3.80;0.70;;;;;;;17.85;74.14;99878.66;8423768;28;20040;-59
2023/03/30 10:52:25;;;;;;;5.28;1.25;;;;;;;20.42;68.98;99866.47;8401174;28;20068;-58
2023/03/30 10:56:36;;;;;;;2.60;0.88;;;;;;;21.44;64.40;99878.84;8354142;28;20041;-58
2023/03/30 11:05:02;;;;;;;2.92;0.60;;;;;;;20.92;62.92;99882.81;8352924;27;20972;-58
2023/03/30 11:09:04;;;;;;;15.20;1.80;;;;;;;18.24;71.03;99886.19;8351011;28;20037;-58
2023/03/30 11:13:12;;;;;;;6.00;1.00;;;;;;;16.86;76.29;99895.34;8350353;28;20414;-58
2023/03/30 11:17:21;;;;;;;10.20;1.25;;;;;;;16.23;78.52;99899.88;8349359;28;20064;-58
2023/03/30 11:21:49;;;;;;;6.88;1.60;;;;;;;16.34;78.06;99897.50;8338405;28;20036;-57
2023/03/30 11:25:59;;;;;;;6.78;1.10;;;;;;;18.73;70.82;99890.34;8367313;28;21685;-57
2023/03/30 11:30:11;;;;;;;6.40;1.25;;;;;;;21.25;62.46;99880.69;8349763;28;20069;-58
2023/03/30 11:34:20;;;;;;;4.82;1.90;;;;;;;22.21;59.58;99876.31;8336890;28;20038;-58
2023/03/30 11:38:37;;;;;;;4.07;0.65;;;;;;;22.92;56.02;99880.00;8334461;28;20368;-58
2023/03/30 11:42:37;;;;;;;2.63;0.30;;;;;;;23.04;56.03;99880.88;8355844;28;20075;-58
2023/03/30 11:46:52;;;;;;;0.70;0.20;;;;;;;23.28;54.75;99883.69;8349432;28;20049;-58
2023/03/30 11:51:12;;;;;;;2.95;0.40;;;;;;;23.34;55.06;99878.06;8348087;28;20037;-58
2023/03/30 11:55:45;;;;;;;1.35;0.43;;;;;;;23.24;55.67;99877.81;8348932;28;20061;-60
2023/03/30 12:00:25;;;;;;;2.08;0.45;;;;;;;22.80;55.45;99870.00;8348278;28;20041;-59
2023/03/30 12:04:37;;;;;;;5.25;0.70;;;;;;;22.86;56.24;99869.06;8347960;28;20053;-59
2023/03/30 12:09:18;;;;;;;5.40;1.08;;;;;;;21.84;58.62;99885.66;8348279;28;20037;-59
2023/03/30 12:13:19;;;;;;;6.80;1.05;;;;;;;19.88;62.09;99874.28;8330227;28;20574;-59
2023/03/30 12:17:29;;;;;;;7.15;1.42;;;;;;;19.84;63.43;99878.50;8308741;28;20106;-60
2023/03/30 12:21:34;;;;;;;9.32;1.55;;;;;;;18.73;67.26;99878.56;8326206;28;20171;-59
2023/03/30 12:26:06;;;;;;;9.45;1.35;;;;;;;18.12;68.85;99869.53;8325589;28;20064;-59
2023/03/30 12:30:13;;;;;;;5.90;1.27;;;;;;;19.69;65.74;99870.53;8282354;28;20046;-59
2023/03/30 12:34:15;;;;;;;6.78;1.17;;;;;;;19.91;66.47;99852.72;8243079;28;20126;-59
2023/03/30 12:38:19;;;;;;;7.55;1.13;;;;;;;21.37;60.80;99842.28;8258780;28;20441;-59
2023/03/30 12:42:25;;;;;;;8.18;1.20;;;;;;;21.07;59.76;99833.06;8304191;28;20029;-59
2023/03/30 12:51:02;;;;;;;4.85;1.13;;;;;;;18.69;63.52;99828.84;8304664;27;20901;-59
2023/03/30 12:55:22;;;;;;;3.30;0.70;;;;;;;18.09;65.38;99826.16;8269683;28;20420;-59
2023/03/30 12:59:51;;;;;;;5.78;1.13;;;;;;;17.32;69.05;99882.06;8273720;28;20413;-59
2023/03/30 13:03:57;;;;;;;16.33;1.90;;;;;;;14.69;94.59;99886.22;8229458;28;20038;-59
2023/03/30 13:08:02;;;;;;;9.23;1.20;;;;;;;13.86;97.48;99859.91;8235384;28;20178;-59
2023/03/30 13:21:15;;;;;;;4.63;0.88;;;;;;;14.06;100.00;99904.63;8332676;27;20386;-55
2023/03/30 13:25:26;;;;;;;11.70;1.83;;;;;;;13.94;100.00;99976.72;8314617;28;20102;-54
2023/03/30 13:29:29;;;;;;;8.25;1.20;;;;;;;13.09;100.00;99935.81;8313840;28;20579;-58
2023/03/30 13:33:36;;;;;;;7.70;1.30;;;;;;;12.90;100.00;99903.59;8314453;28;20038;-58
2023/03/30 13:38:16;;;;;;;3.58;1.10;;;;;;;13.80;100.00;99887.78;8329718;28;20052;-58
2023/03/30 13:46:57;;;;;;;2.95;1.23;;;;;;;14.94;94.52;99878.69;8323152;27;21051;-53
2023/03/30 13:51:01;;;;;;;6.22;1.25;;;;;;;15.43;90.68;99869.03;8319142;28;20048;-53
2023/03/30 13:55:08;;;;;;;7.10;0.90;;;;;;;15.77;90.04;99860.28;8347662;28;20517;-53
2023/03/30 13:59:14;;;;;;;5.35;1.15;;;;;;;16.09;88.49;99848.94;8347324;28;20515;-53
2023/03/30 14:03:46;;;;;;;7.43;1.23;;;;;;;16.33;86.02;99840.41;8347972;28;20048;-59
2023/03/30 14:07:47;;;;;;;9.35;1.58;;;;;;;16.70;84.66;99834.72;8351337;28;20124;-59
2023/03/30 14:11:52;;;;;;;6.35;1.85;;;;;;;16.89;82.72;99842.22;8345841;28;20048;-59
2023/03/30 14:15:53;;;;;;;10.95;1.33;;;;;;;17.05;78.33;99833.75;8323832;28;20049;-59
2023/03/30 14:20:22;;;;;;;10.05;1.48;;;;;;;17.26;77.44;99833.72;8327874;28;20095;-59
2023/03/30 14:24:29;;;;;;;6.93;1.52;;;;;;;17.45;75.99;99846.69;8346626;28;20112;-53
2023/03/30 14:28:34;;;;;;;7.18;1.52;;;;;;;17.27;71.13;99830.75;8345276;28;20499;-54
2023/03/30 14:32:34;;;;;;;9.93;1.65;;;;;;;17.04;73.20;99829.31;8361961;28;20041;-54
2023/03/30 14:36:35;;;;;;;10.25;1.70;;;;;;;16.94;72.02;99834.28;8379372;28;20037;-54
2023/03/30 14:40:38;;;;;;;6.57;1.58;;;;;;;17.47;72.12;99828.16;8376949;28;20041;-54
2023/03/30 14:44:40;;;;;;;8.82;1.73;;;;;;;17.59;71.10;99818.34;8379582;28;20029;-54
2023/03/30 14:48:42;;;;;;;11.40;1.77;;;;;;;17.70;70.95;99825.16;8379464;28;20531;-54
2023/03/30 14:52:45;;;;;;;12.05;1.60;;;;;;;17.68;70.44;99821.78;8357809;28;20029;-54
2023/03/30 14:56:53;;;;;;;9.50;1.83;;;;;;;17.63;71.04;99816.94;8330084;28;20091;-56
2023/03/30 15:00:57;;;;;;;8.75;1.80;;;;;;;17.67;71.72;99810.00;8322699;28;20449;-54
2023/03/30 15:04:58;;;;;;;9.43;1.75;;;;;;;17.57;71.93;99804.06;8335122;28;20389;-54
2023/03/30 15:09:02;;;;;;;11.32;1.58;;;;;;;17.68;71.57;99799.91;8320391;28;20037;-54
2023/03/30 15:13:06;;;;;;;4.37;0.90;;;;;;;17.61;70.47;99794.41;8303831;28;20416;-53
2023/03/30 15:17:12;;;;;;;6.47;1.00;;;;;;;17.61;67.48;99797.16;8301663;28;20258;-53
2023/03/30 15:21:12;;;;;;;4.90;0.60;;;;;;;17.61;67.33;99799.88;8295858;28;20299;-54
2023/03/30 15:25:17;;;;;;;5.88;1.15;;;;;;;17.46;66.71;99805.50;8314879;28;20120;-53
2023/03/30 15:29:18;;;;;;;4.93;0.80;;;;;;;17.34;67.90;99817.13;8272661;28;20042;-54
2023/03/30 15:33:29;;;;;;;4.38;0.90;;;;;;;17.43;66.28;99819.56;8307393;28;20439;-54
2023/03/30 15:37:31;;;;;;;5.18;1.17;;;;;;;17.40;67.59;99816.34;8304417;28;20289;-54
2023/03/30 15:41:57;;;;;;;5.47;0.80;;;;;;;17.51;68.01;99815.81;8300527;28;20078;-54
2023/03/30 15:46:06;;;;;;;5.95;1.33;;;;;;;17.54;68.06;99815.41;8336329;28;20053;-54
2023/03/30 15:50:12;;;;;;;5.57;0.90;;;;;;;17.51;68.31;99813.09;8326784;28;20271;-59
2023/03/30 15:54:22;;;;;;;3.80;0.90;;;;;;;17.65;68.77;99806.63;8320512;28;20435;-60
2023/03/30 15:58:27;;;;;;;8.95;1.30;;;;;;;17.63;68.13;99797.78;8299872;28;20660;-59
2023/03/30 16:06:43;;;;;;;7.90;1.17;;;;;;;17.74;68.31;99797.19;8344725;27;20372;-54
2023/03/30 16:10:44;;;;;;;10.35;1.77;;;;;;;17.61;69.59;99805.34;8362039;28;20049;-54
2023/03/30 16:14:46;;;;;;;8.02;1.40;;;;;;;17.35;67.50;99800.53;8381099;28;20545;-54
2023/03/30 16:18:47;;;;;;;6.85;1.48;;;;;;;17.12;68.91;99813.66;8380434;28;20357;-55
2023/03/30 16:22:49;;;;;;;6.47;1.17;;;;;;;16.70;71.80;99811.00;8328050;28;20092;-54
2023/03/30 16:26:49;;;;;;;7.85;1.20;;;;;;;16.58;71.02;99807.13;8333525;28;20041;-53
2023/03/30 16:30:54;;;;;;;5.07;0.93;;;;;;;16.35;72.98;99806.41;8334451;28;20034;-54
2023/03/30 16:34:55;;;;;;;5.25;0.52;;;;;;;16.19;71.84;99808.59;8339022;28;20095;-53
2023/03/30 16:38:55;;;;;;;2.05;0.52;;;;;;;16.16;71.57;99811.69;8335908;28;20308;-53
2023/03/30 16:42:56;;;;;;;3.70;0.82;;;;;;;16.09;72.78;99816.22;8325013;28;20530;-53
2023/03/30 16:46:56;;;;;;;5.35;0.98;;;;;;;16.02;73.96;99820.75;8320792;28;20064;-54
2023/03/30 16:50:57;;;;;;;4.10;0.73;;;;;;;16.01;73.72;99813.63;8330905;28;20037;-54
2023/03/30 16:54:57;;;;;;;3.33;0.70;;;;;;;16.02;73.22;99828.94;8328757;28;20785;-55
2023/03/30 16:58:59;;;;;;;4.72;0.93;;;;;;;16.04;73.40;99826.88;8336696;28;20423;-55
2023/03/30 17:02:59;;;;;;;4.40;1.10;;;;;;;15.96;74.28;99821.53;8346346;28;20578;-59
2023/03/30 17:07:00;;;;;;;8.07;0.90;;;;;;;15.92;74.11;99826.50;8333336;28;20095;-59
2023/03/30 17:11:03;;;;;;;10.85;1.17;;;;;;;15.94;74.55;99823.59;8346729;28;20454;-59
2023/03/30 17:15:04;;;;;;;4.47;0.88;;;;;;;15.90;75.69;99827.75;8340361;28;20499;-59
2023/03/30 17:19:08;;;;;;;4.47;0.82;;;;;;;15.87;75.58;99822.66;8316747;28;20534;-59
2023/03/30 17:23:09;;;;;;;6.55;1.63;;;;;;;15.73;77.33;99827.09;8324635;28;20561;-59
2023/03/30 17:27:10;;;;;;;6.97;0.93;;;;;;;15.65;77.84;99830.78;8323595;28;20099;-55
2023/03/30 17:31:17;;;;;;;4.78;1.00;;;;;;;15.63;78.60;99842.91;8323455;28;20343;-55
2023/03/30 17:35:17;;;;;;;7.68;1.17;;;;;;;15.47;79.76;99838.50;8299327;28;20029;-55
2023/03/30 17:39:18;;;;;;;6.28;1.25;;;;;;;15.33;80.52;99842.06;8322500;28;20067;-55
2023/03/30 17:43:18;;;;;;;7.90;1.00;;;;;;;15.33;80.73;99842.06;8292591;28;20045;-55
2023/03/30 17:47:19;;;;;;;11.80;1.30;;;;;;;15.28;80.91;99852.66;8356290;28;20037;-55
2023/03/30 17:51:20;;;;;;;7.15;1.40;;;;;;;15.29;80.50;99854.38;8348159;28;20065;-54
2023/03/30 17:55:26;;;;;;;5.97;1.73;;;;;;;15.30;79.92;99856.03;8315660;28;20045;-55
2023/03/30 17:59:27;;;;;;;6.80;1.08;;;;;;;15.30;80.15;99847.88;8305240;28;20042;-54
2023/03/30 18:03:28;;;;;;;4.63;0.90;;;;;;;15.39;79.34;99852.22;8321057;28;20048;-54
2023/03/30 18:07:29;;;;;;;9.60;1.20;;;;;;;15.44;79.21;99841.59;8320601;28;20042;-53
2023/03/30 18:11:29;;;;;;;6.80;1.27;;;;;;;15.49;78.51;99844.63;8316611;28;20050;-54
2023/03/30 18:15:31;;;;;;;6.72;1.27;;;;;;;15.44;78.69;99832.59;8301507;28;20034;-54
2023/03/30 18:19:31;;;;;;;6.95;1.25;;;;;;;15.45;78.75;99850.63;8304563;28;20088;-54
2023/03/30 18:23:32;;;;;;;6.97;1.05;;;;;;;15.45;78.70;99867.81;8288712;28;20095;-54
2023/03/30 18:27:33;;;;;;;4.70;0.90;;;;;;;15.27;79.33;99856.41;8293983;28;20083;-61
2023/03/30 18:31:34;;;;;;;7.18;1.17;;;;;;;15.22;79.21;99860.75;8322225;28;20056;-61
2023/03/30 18:35:35;;;;;;;5.10;1.00;;;;;;;15.12;79.89;99858.28;8305903;28;20045;-61
2023/03/30 18:39:36;;;;;;;8.65;1.23;;;;;;;14.97;80.20;99851.09;8306439;28;20493;-60
2023/03/30 18:43:37;;;;;;;6.68;1.15;;;;;;;14.84;81.13;99861.78;8311813;28;20936;-60
2023/03/30 18:47:38;;;;;;;5.05;1.17;;;;;;;14.85;81.09;99853.44;8317013;28;20423;-61
2023/03/30 18:51:38;;;;;;;5.45;1.00;;;;;;;14.76;81.61;99854.53;8309627;28;20124;-61
2023/03/30 18:55:42;;;;;;;4.57;1.10;;;;;;;14.77;81.68;99856.25;8305357;28;20116;-61
2023/03/30 18:59:42;;;;;;;4.53;0.90;;;;;;;14.77;81.97;99860.81;8303541;28;20049;-61
2023/03/30 19:03:43;;;;;;;4.97;1.20;;;;;;;14.72;82.49;99864.09;8308310;28;20038;-62
2023/03/30 19:07:44;;;;;;;5.60;1.33;;;;;;;14.69;82.97;99864.47;8312921;28;20280;-62
2023/03/30 19:11:45;;;;;;;4.95;1.23;;;;;;;14.61;83.76;99867.22;8340402;28;20565;-61
2023/03/30 19:15:46;;;;;;;5.60;1.42;;;;;;;14.57;84.23;99855.03;8349474;28;20060;-61
2023/03/30 19:19:46;;;;;;;5.10;0.93;;;;;;;14.63;84.32;99862.47;8317103;28;20423;-61
2023/03/30 19:23:47;;;;;;;4.80;1.10;;;;;;;14.68;85.03;99868.22;8294053;28;20305;-60
2023/03/30 19:27:49;;;;;;;6.20;1.08;;;;;;;14.53;88.77;99861.88;8293822;28;20284;-60
2023/03/30 19:31:51;;;;;;;8.55;1.20;;;;;;;14.26;92.88;99867.00;8290579;28;20049;-62
2023/03/30 19:35:52;;;;;;;7.22;1.05;;;;;;;14.08;96.56;99831.03;8290545;28;20049;-62
2023/03/30 19:39:52;;;;;;;5.93;1.10;;;;;;;14.01;97.32;99847.25;8316793;28;20044;-61
2023/03/30 19:43:52;;;;;;;5.40;1.30;;;;;;;14.02;96.21;99842.63;8316512;28;20492;-61
2023/03/30 19:47:53;;;;;;;8.60;1.65;;;;;;;13.96;97.38;99844.22;8316686;28;20046;-61
2023/03/30 19:51:53;;;;;;;4.97;1.17;;;;;;;13.99;97.25;99838.41;8314676;28;20383;-62
2023/03/30 19:55:54;;;;;;;6.53;1.30;;;;;;;13.85;98.35;99831.88;8315964;28;20529;-61
2023/03/30 19:59:54;;;;;;;4.85;1.80;;;;;;;13.72;99.85;99837.03;8314722;28;20044;-60
2023/03/30 20:03:55;;;;;;;11.98;1.80;;;;;;;13.60;99.89;99832.16;8314537;28;20412;-61